sensor_id;sensor_type;location;lat;lon;timestamp;temperature;humidity
84393;DHT22;74592;48.846;2.358;2024-01-27T19:33:09;20.70;35.40
84393;DHT22;74592;48.846;2.358;2024-01-27T19:35:35;22.40;31.70
84393;DHT22;74592;48.846;2.358;2024-01-27T19:38:00;22.60;31.60
84393;DHT22;74592;48.846;2.358;2024-01-27T19:40:29;22.70;31.20
84393;DHT22;74592;48.846;2.358;2024-01-27T19:42:56;22.90;31.00
84393;DHT22;74592;48.846;2.358;2024-01-27T19:45:23;23.00;31.80
84393;DHT22;74592;48.846;2.358;2024-01-27T19:47:49;23.10;30.00
84393;DHT22;74592;48.846;2.358;2024-01-27T19:50:15;23.20;30.90
84393;DHT22;74592;48.846;2.358;2024-01-27T19:52:40;23.20;30.50
84393;DHT22;74592;48.846;2.358;2024-01-27T19:55:06;23.20;30.60
84393;DHT22;74592;48.846;2.358;2024-01-27T19:57:34;23.40;30.10
84393;DHT22;74592;48.846;2.358;2024-01-27T19:59:59;23.40;30.00
84393;DHT22;74592;48.846;2.358;2024-01-27T20:02:25;23.50;30.20
84393;DHT22;74592;48.846;2.358;2024-01-27T20:04:50;23.50;29.90
84393;DHT22;74592;48.846;2.358;2024-01-27T20:07:16;23.60;29.90
84393;DHT22;74592;48.846;2.358;2024-01-27T20:09:42;23.60;30.10
84393;DHT22;74592;48.846;2.358;2024-01-27T20:12:07;23.60;30.20
84393;DHT22;74592;48.846;2.358;2024-01-27T20:14:34;23.70;30.10
84393;DHT22;74592;48.846;2.358;2024-01-27T20:16:59;23.70;30.30
84393;DHT22;74592;48.846;2.358;2024-01-27T20:19:25;23.70;30.20
84393;DHT22;74592;48.846;2.358;2024-01-27T20:21:51;23.70;30.40
84393;DHT22;74592;48.846;2.358;2024-01-27T20:24:16;23.70;30.40
84393;DHT22;74592;48.846;2.358;2024-01-27T20:26:42;23.70;30.40
84393;DHT22;74592;48.846;2.358;2024-01-27T20:29:08;23.70;30.80
84393;DHT22;74592;48.846;2.358;2024-01-27T20:31:34;23.70;30.50
84393;DHT22;74592;48.846;2.358;2024-01-27T20:34:03;23.70;30.90
84393;DHT22;74592;48.846;2.358;2024-01-27T20:36:30;23.70;31.20
84393;DHT22;74592;48.846;2.358;2024-01-27T20:38:55;23.60;30.70
84393;DHT22;74592;48.846;2.358;2024-01-27T20:41:21;23.60;31.20
84393;DHT22;74592;48.846;2.358;2024-01-27T20:43:47;23.60;30.60
84393;DHT22;74592;48.846;2.358;2024-01-27T20:46:13;23.60;30.40
84393;DHT22;74592;48.846;2.358;2024-01-27T20:48:39;23.70;30.50
84393;DHT22;74592;48.846;2.358;2024-01-27T20:51:05;23.70;30.30
84393;DHT22;74592;48.846;2.358;2024-01-27T20:53:31;23.70;30.10
84393;DHT22;74592;48.846;2.358;2024-01-27T20:55:56;23.70;30.10
84393;DHT22;74592;48.846;2.358;2024-01-27T20:58:22;23.60;30.40
84393;DHT22;74592;48.846;2.358;2024-01-27T21:00:48;23.50;31.00
84393;DHT22;74592;48.846;2.358;2024-01-27T21:03:14;23.40;30.50
84393;DHT22;74592;48.846;2.358;2024-01-27T21:05:40;23.30;30.80
84393;DHT22;74592;48.846;2.358;2024-01-27T21:08:06;23.30;31.00
84393;DHT22;74592;48.846;2.358;2024-01-27T21:10:31;23.20;30.90
84393;DHT22;74592;48.846;2.358;2024-01-27T21:12:57;23.20;31.00
84393;DHT22;74592;48.846;2.358;2024-01-27T21:15:22;23.10;30.90
84393;DHT22;74592;48.846;2.358;2024-01-27T21:17:48;23.00;30.90
84393;DHT22;74592;48.846;2.358;2024-01-27T21:20:14;23.00;30.80
84393;DHT22;74592;48.846;2.358;2024-01-27T21:22:46;22.90;31.20
84393;DHT22;74592;48.846;2.358;2024-01-27T21:25:11;22.90;31.10
84393;DHT22;74592;48.846;2.358;2024-01-27T21:27:37;22.80;31.70
84393;DHT22;74592;48.846;2.358;2024-01-27T21:30:03;22.80;31.00
84393;DHT22;74592;48.846;2.358;2024-01-27T21:32:29;22.70;31.70
84393;DHT22;74592;48.846;2.358;2024-01-27T21:34:58;22.70;30.80
84393;DHT22;74592;48.846;2.358;2024-01-27T21:37:23;22.70;31.00
84393;DHT22;74592;48.846;2.358;2024-01-27T21:39:51;22.70;30.80
84393;DHT22;74592;48.846;2.358;2024-01-27T21:42:19;22.70;30.80
84393;DHT22;74592;48.846;2.358;2024-01-27T21:44:44;22.70;30.80
84393;DHT22;74592;48.846;2.358;2024-01-27T21:47:10;22.60;31.00
84393;DHT22;74592;48.846;2.358;2024-01-27T21:49:38;22.60;31.00
84393;DHT22;74592;48.846;2.358;2024-01-27T21:52:04;22.60;31.10
84393;DHT22;74592;48.846;2.358;2024-01-27T21:54:29;22.60;31.10
84393;DHT22;74592;48.846;2.358;2024-01-27T21:56:55;22.60;30.90
84393;DHT22;74592;48.846;2.358;2024-01-27T21:59:21;22.60;30.70
84393;DHT22;74592;48.846;2.358;2024-01-27T22:01:48;22.50;30.90
84393;DHT22;74592;48.846;2.358;2024-01-27T22:04:13;22.50;31.00
84393;DHT22;74592;48.846;2.358;2024-01-27T22:06:39;22.50;31.00
84393;DHT22;74592;48.846;2.358;2024-01-27T22:09:05;22.50;31.20
84393;DHT22;74592;48.846;2.358;2024-01-27T22:11:32;22.40;30.80
84393;DHT22;74592;48.846;2.358;2024-01-27T22:13:58;22.50;30.70
84393;DHT22;74592;48.846;2.358;2024-01-27T22:16:23;22.50;30.80
84393;DHT22;74592;48.846;2.358;2024-01-27T22:18:49;22.40;30.70
84393;DHT22;74592;48.846;2.358;2024-01-27T22:21:15;22.40;30.60
84393;DHT22;74592;48.846;2.358;2024-01-27T22:23:43;22.40;31.30
84393;DHT22;74592;48.846;2.358;2024-01-27T22:26:09;22.30;30.60
84393;DHT22;74592;48.846;2.358;2024-01-27T22:28:36;22.30;30.60
84393;DHT22;74592;48.846;2.358;2024-01-27T22:31:03;22.40;30.70
84393;DHT22;74592;48.846;2.358;2024-01-27T22:33:29;22.30;30.60
84393;DHT22;74592;48.846;2.358;2024-01-27T22:35:54;22.30;30.80
84393;DHT22;74592;48.846;2.358;2024-01-27T22:38:20;22.30;30.80
84393;DHT22;74592;48.846;2.358;2024-01-27T22:40:46;22.30;30.60
84393;DHT22;74592;48.846;2.358;2024-01-27T22:43:11;22.30;30.60
84393;DHT22;74592;48.846;2.358;2024-01-27T22:45:37;22.30;30.60
84393;DHT22;74592;48.846;2.358;2024-01-27T22:48:03;22.30;30.60
84393;DHT22;74592;48.846;2.358;2024-01-27T22:50:29;22.30;30.80
84393;DHT22;74592;48.846;2.358;2024-01-27T22:52:55;22.20;30.70
84393;DHT22;74592;48.846;2.358;2024-01-27T22:55:21;22.30;30.80
84393;DHT22;74592;48.846;2.358;2024-01-27T22:57:46;22.20;30.80
84393;DHT22;74592;48.846;2.358;2024-01-27T23:00:13;22.20;30.80
84393;DHT22;74592;48.846;2.358;2024-01-27T23:02:53;22.20;30.50
84393;DHT22;74592;48.846;2.358;2024-01-27T23:05:18;22.20;30.70
84393;DHT22;74592;48.846;2.358;2024-01-27T23:07:44;22.20;30.60
84393;DHT22;74592;48.846;2.358;2024-01-27T23:10:10;22.20;30.70
84393;DHT22;74592;48.846;2.358;2024-01-27T23:12:35;22.10;31.00
84393;DHT22;74592;48.846;2.358;2024-01-27T23:15:01;22.10;30.80
84393;DHT22;74592;48.846;2.358;2024-01-27T23:17:26;22.10;29.90
84393;DHT22;74592;48.846;2.358;2024-01-27T23:19:52;22.10;30.30
84393;DHT22;74592;48.846;2.358;2024-01-27T23:22:18;22.10;30.10
84393;DHT22;74592;48.846;2.358;2024-01-27T23:24:43;22.10;30.40
84393;DHT22;74592;48.846;2.358;2024-01-27T23:27:09;22.20;30.20
84393;DHT22;74592;48.846;2.358;2024-01-27T23:29:35;22.20;30.10
84393;DHT22;74592;48.846;2.358;2024-01-27T23:32:04;22.20;30.00
84393;DHT22;74592;48.846;2.358;2024-01-27T23:34:30;22.20;30.10
84393;DHT22;74592;48.846;2.358;2024-01-27T23:36:55;22.20;30.40
84393;DHT22;74592;48.846;2.358;2024-01-27T23:39:21;22.20;30.20
84393;DHT22;74592;48.846;2.358;2024-01-27T23:41:46;22.20;30.20
84393;DHT22;74592;48.846;2.358;2024-01-27T23:44:12;22.20;30.10
84393;DHT22;74592;48.846;2.358;2024-01-27T23:46:38;22.20;30.00
84393;DHT22;74592;48.846;2.358;2024-01-27T23:49:03;22.20;30.10
84393;DHT22;74592;48.846;2.358;2024-01-27T23:51:29;22.10;30.40
84393;DHT22;74592;48.846;2.358;2024-01-27T23:53:55;22.10;30.20
84393;DHT22;74592;48.846;2.358;2024-01-27T23:56:23;22.00;31.20
84393;DHT22;74592;48.846;2.358;2024-01-27T23:58:49;22.00;31.50
